sensor_id;sensor_type;location;lat;lon;timestamp;P1;durP1;ratioP1;P2;durP2;ratioP2
41233;SDS011;26968;42.686;23.352;2024-03-22T00:04:04;37.72;;;18.02;;
41233;SDS011;26968;42.686;23.352;2024-03-22T00:08:55;39.38;;;18.00;;
41233;SDS011;26968;42.686;23.352;2024-03-22T00:13:46;37.53;;;17.20;;
41233;SDS011;26968;42.686;23.352;2024-03-22T00:18:37;40.45;;;18.27;;
41233;SDS011;26968;42.686;23.352;2024-03-22T00:23:28;36.95;;;16.88;;
41233;SDS011;26968;42.686;23.352;2024-03-22T00:25:55;44.40;;;18.35;;
41233;SDS011;26968;42.686;23.352;2024-03-22T00:30:48;29.55;;;15.20;;
41233;SDS011;26968;42.686;23.352;2024-03-22T00:35:39;27.98;;;13.80;;
41233;SDS011;26968;42.686;23.352;2024-03-22T00:40:29;31.25;;;12.63;;
41233;SDS011;26968;42.686;23.352;2024-03-22T00:45:20;26.65;;;12.88;;
41233;SDS011;26968;42.686;23.352;2024-03-22T00:50:11;23.67;;;11.50;;
41233;SDS011;26968;42.686;23.352;2024-03-22T00:52:37;25.85;;;10.77;;
41233;SDS011;26968;42.686;23.352;2024-03-22T00:55:03;29.60;;;11.93;;
41233;SDS011;26968;42.686;23.352;2024-03-22T00:57:30;35.35;;;14.98;;
41233;SDS011;26968;42.686;23.352;2024-03-22T00:59:57;27.92;;;13.80;;
41233;SDS011;26968;42.686;23.352;2024-03-22T01:02:23;25.80;;;12.90;;
41233;SDS011;26968;42.686;23.352;2024-03-22T01:07:14;19.77;;;9.15;;
41233;SDS011;26968;42.686;23.352;2024-03-22T01:09:40;21.00;;;9.57;;
41233;SDS011;26968;42.686;23.352;2024-03-22T01:12:06;19.98;;;10.05;;
41233;SDS011;26968;42.686;23.352;2024-03-22T01:14:32;20.05;;;9.15;;
41233;SDS011;26968;42.686;23.352;2024-03-22T01:19:23;23.92;;;10.43;;
41233;SDS011;26968;42.686;23.352;2024-03-22T01:21:49;23.95;;;10.20;;
41233;SDS011;26968;42.686;23.352;2024-03-22T01:26:40;20.60;;;8.77;;
41233;SDS011;26968;42.686;23.352;2024-03-22T01:29:05;23.13;;;9.88;;
41233;SDS011;26968;42.686;23.352;2024-03-22T01:31:31;26.50;;;10.18;;
41233;SDS011;26968;42.686;23.352;2024-03-22T01:33:56;20.13;;;8.63;;
41233;SDS011;26968;42.686;23.352;2024-03-22T01:36:22;24.70;;;9.95;;
41233;SDS011;26968;42.686;23.352;2024-03-22T01:38:47;23.45;;;10.82;;
41233;SDS011;26968;42.686;23.352;2024-03-22T01:41:13;22.52;;;9.18;;
41233;SDS011;26968;42.686;23.352;2024-03-22T01:43:39;19.75;;;10.18;;
41233;SDS011;26968;42.686;23.352;2024-03-22T01:46:05;20.08;;;10.95;;
41233;SDS011;26968;42.686;23.352;2024-03-22T01:48:33;23.30;;;9.60;;
41233;SDS011;26968;42.686;23.352;2024-03-22T01:50:59;19.15;;;9.85;;
41233;SDS011;26968;42.686;23.352;2024-03-22T01:53:25;21.33;;;10.32;;
41233;SDS011;26968;42.686;23.352;2024-03-22T01:55:51;17.70;;;8.82;;
41233;SDS011;26968;42.686;23.352;2024-03-22T02:00:42;18.08;;;9.23;;
41233;SDS011;26968;42.686;23.352;2024-03-22T02:03:08;17.52;;;9.23;;
41233;SDS011;26968;42.686;23.352;2024-03-22T02:05:33;16.50;;;9.68;;
41233;SDS011;26968;42.686;23.352;2024-03-22T02:10:24;17.15;;;8.88;;
41233;SDS011;26968;42.686;23.352;2024-03-22T02:12:50;20.52;;;8.80;;
41233;SDS011;26968;42.686;23.352;2024-03-22T02:15:15;19.23;;;9.95;;
41233;SDS011;26968;42.686;23.352;2024-03-22T02:17:41;21.10;;;9.23;;
41233;SDS011;26968;42.686;23.352;2024-03-22T02:22:33;21.67;;;9.90;;
41233;SDS011;26968;42.686;23.352;2024-03-22T02:24:58;22.80;;;11.07;;
41233;SDS011;26968;42.686;23.352;2024-03-22T02:27:24;20.77;;;10.80;;
41233;SDS011;26968;42.686;23.352;2024-03-22T02:29:51;24.23;;;10.68;;
41233;SDS011;26968;42.686;23.352;2024-03-22T02:32:16;26.88;;;10.93;;
41233;SDS011;26968;42.686;23.352;2024-03-22T02:34:42;21.50;;;10.93;;
41233;SDS011;26968;42.686;23.352;2024-03-22T02:37:07;23.20;;;10.68;;
41233;SDS011;26968;42.686;23.352;2024-03-22T02:39:33;25.17;;;10.55;;
41233;SDS011;26968;42.686;23.352;2024-03-22T02:41:58;22.73;;;10.73;;
41233;SDS011;26968;42.686;23.352;2024-03-22T02:44:24;23.40;;;11.10;;
41233;SDS011;26968;42.686;23.352;2024-03-22T02:46:50;29.55;;;10.52;;
41233;SDS011;26968;42.686;23.352;2024-03-22T02:49:15;19.35;;;10.25;;
41233;SDS011;26968;42.686;23.352;2024-03-22T02:51:41;25.38;;;11.45;;
41233;SDS011;26968;42.686;23.352;2024-03-22T02:54:06;27.05;;;9.75;;
41233;SDS011;26968;42.686;23.352;2024-03-22T02:56:32;23.55;;;11.90;;
41233;SDS011;26968;42.686;23.352;2024-03-22T02:58:57;27.38;;;10.55;;
41233;SDS011;26968;42.686;23.352;2024-03-22T03:01:23;25.63;;;9.65;;
41233;SDS011;26968;42.686;23.352;2024-03-22T03:03:48;24.95;;;11.88;;
41233;SDS011;26968;42.686;23.352;2024-03-22T03:06:14;30.15;;;13.52;;
41233;SDS011;26968;42.686;23.352;2024-03-22T03:08:40;27.83;;;13.70;;
41233;SDS011;26968;42.686;23.352;2024-03-22T03:11:06;26.85;;;11.45;;
41233;SDS011;26968;42.686;23.352;2024-03-22T03:13:31;20.80;;;10.77;;
41233;SDS011;26968;42.686;23.352;2024-03-22T03:15:57;24.33;;;10.25;;
41233;SDS011;26968;42.686;23.352;2024-03-22T03:18:22;24.42;;;9.88;;
41233;SDS011;26968;42.686;23.352;2024-03-22T03:20:48;22.67;;;10.13;;
41233;SDS011;26968;42.686;23.352;2024-03-22T03:23:14;20.73;;;9.27;;
41233;SDS011;26968;42.686;23.352;2024-03-22T03:25:39;18.27;;;8.73;;
41233;SDS011;26968;42.686;23.352;2024-03-22T03:28:05;18.20;;;8.68;;
41233;SDS011;26968;42.686;23.352;2024-03-22T03:30:32;17.90;;;9.40;;
41233;SDS011;26968;42.686;23.352;2024-03-22T03:33:01;17.98;;;8.13;;
41233;SDS011;26968;42.686;23.352;2024-03-22T03:35:26;16.58;;;8.52;;
41233;SDS011;26968;42.686;23.352;2024-03-22T03:37:54;19.45;;;9.38;;
41233;SDS011;26968;42.686;23.352;2024-03-22T03:40:19;19.60;;;8.77;;
41233;SDS011;26968;42.686;23.352;2024-03-22T03:42:46;17.67;;;8.13;;
41233;SDS011;26968;42.686;23.352;2024-03-22T03:45:12;15.80;;;8.02;;
41233;SDS011;26968;42.686;23.352;2024-03-22T03:47:38;16.55;;;8.30;;
41233;SDS011;26968;42.686;23.352;2024-03-22T03:50:03;18.65;;;7.88;;
41233;SDS011;26968;42.686;23.352;2024-03-22T03:52:29;19.88;;;10.13;;
41233;SDS011;26968;42.686;23.352;2024-03-22T03:54:54;21.17;;;9.45;;
41233;SDS011;26968;42.686;23.352;2024-03-22T03:57:20;22.85;;;10.15;;
41233;SDS011;26968;42.686;23.352;2024-03-22T03:59:46;21.17;;;10.18;;
41233;SDS011;26968;42.686;23.352;2024-03-22T04:02:11;23.45;;;10.20;;
41233;SDS011;26968;42.686;23.352;2024-03-22T04:04:37;28.88;;;9.15;;
41233;SDS011;26968;42.686;23.352;2024-03-22T04:07:02;21.33;;;9.25;;
41233;SDS011;26968;42.686;23.352;2024-03-22T04:09:28;20.67;;;8.27;;
41233;SDS011;26968;42.686;23.352;2024-03-22T04:11:53;17.63;;;9.27;;
41233;SDS011;26968;42.686;23.352;2024-03-22T04:14:19;17.25;;;8.40;;
41233;SDS011;26968;42.686;23.352;2024-03-22T04:16:44;19.58;;;8.68;;
41233;SDS011;26968;42.686;23.352;2024-03-22T04:19:10;17.48;;;7.55;;
41233;SDS011;26968;42.686;23.352;2024-03-22T04:21:35;19.45;;;7.20;;
41233;SDS011;26968;42.686;23.352;2024-03-22T04:24:01;14.63;;;7.75;;
41233;SDS011;26968;42.686;23.352;2024-03-22T04:26:27;16.63;;;7.97;;
41233;SDS011;26968;42.686;23.352;2024-03-22T04:28:52;15.57;;;7.47;;
41233;SDS011;26968;42.686;23.352;2024-03-22T04:31:18;15.52;;;7.05;;
41233;SDS011;26968;42.686;23.352;2024-03-22T04:33:43;21.45;;;6.28;;
41233;SDS011;26968;42.686;23.352;2024-03-22T04:36:09;14.82;;;7.65;;
41233;SDS011;26968;42.686;23.352;2024-03-22T04:38:34;20.40;;;7.40;;
41233;SDS011;26968;42.686;23.352;2024-03-22T04:41:00;21.08;;;8.52;;
41233;SDS011;26968;42.686;23.352;2024-03-22T04:45:51;20.98;;;9.40;;
41233;SDS011;26968;42.686;23.352;2024-03-22T04:48:18;30.88;;;11.30;;
41233;SDS011;26968;42.686;23.352;2024-03-22T04:50:45;22.95;;;8.77;;
41233;SDS011;26968;42.686;23.352;2024-03-22T04:53:12;17.85;;;9.43;;
41233;SDS011;26968;42.686;23.352;2024-03-22T04:55:38;82.25;;;23.13;;
41233;SDS011;26968;42.686;23.352;2024-03-22T04:58:04;33.22;;;10.48;;
41233;SDS011;26968;42.686;23.352;2024-03-22T05:00:29;24.27;;;10.27;;
41233;SDS011;26968;42.686;23.352;2024-03-22T05:02:55;23.98;;;8.82;;
41233;SDS011;26968;42.686;23.352;2024-03-22T05:05:20;26.85;;;10.52;;
41233;SDS011;26968;42.686;23.352;2024-03-22T05:10:12;26.77;;;12.18;;
41233;SDS011;26968;42.686;23.352;2024-03-22T05:15:04;36.53;;;11.85;;
41233;SDS011;26968;42.686;23.352;2024-03-22T05:17:30;46.25;;;11.40;;
41233;SDS011;26968;42.686;23.352;2024-03-22T05:19:58;32.50;;;11.35;;
41233;SDS011;26968;42.686;23.352;2024-03-22T05:22:23;29.65;;;12.35;;
41233;SDS011;26968;42.686;23.352;2024-03-22T05:24:49;29.73;;;11.70;;
41233;SDS011;26968;42.686;23.352;2024-03-22T05:27:14;37.72;;;12.75;;
41233;SDS011;26968;42.686;23.352;2024-03-22T05:29:40;34.90;;;12.18;;
41233;SDS011;26968;42.686;23.352;2024-03-22T05:32:05;35.42;;;13.07;;
41233;SDS011;26968;42.686;23.352;2024-03-22T05:34:31;43.65;;;13.10;;
41233;SDS011;26968;42.686;23.352;2024-03-22T05:36:57;26.52;;;11.18;;
41233;SDS011;26968;42.686;23.352;2024-03-22T05:39:22;27.30;;;10.60;;
41233;SDS011;26968;42.686;23.352;2024-03-22T05:41:48;27.70;;;11.57;;
41233;SDS011;26968;42.686;23.352;2024-03-22T05:44:13;20.75;;;10.65;;
41233;SDS011;26968;42.686;23.352;2024-03-22T05:46:39;20.48;;;9.18;;
41233;SDS011;26968;42.686;23.352;2024-03-22T05:49:04;17.88;;;8.85;;
41233;SDS011;26968;42.686;23.352;2024-03-22T05:51:30;22.13;;;9.85;;
41233;SDS011;26968;42.686;23.352;2024-03-22T05:53:56;24.40;;;8.50;;
41233;SDS011;26968;42.686;23.352;2024-03-22T05:56:22;22.67;;;9.10;;
41233;SDS011;26968;42.686;23.352;2024-03-22T05:58:47;24.05;;;10.25;;
41233;SDS011;26968;42.686;23.352;2024-03-22T06:01:13;21.13;;;8.35;;
41233;SDS011;26968;42.686;23.352;2024-03-22T06:03:38;23.80;;;10.32;;
41233;SDS011;26968;42.686;23.352;2024-03-22T06:06:04;21.25;;;9.60;;
41233;SDS011;26968;42.686;23.352;2024-03-22T06:08:30;26.70;;;11.00;;
41233;SDS011;26968;42.686;23.352;2024-03-22T06:11:03;32.53;;;11.30;;
41233;SDS011;26968;42.686;23.352;2024-03-22T06:13:28;33.03;;;12.38;;
41233;SDS011;26968;42.686;23.352;2024-03-22T06:15:56;29.70;;;9.82;;
41233;SDS011;26968;42.686;23.352;2024-03-22T06:18:22;23.25;;;11.70;;
41233;SDS011;26968;42.686;23.352;2024-03-22T06:20:47;29.73;;;9.98;;
41233;SDS011;26968;42.686;23.352;2024-03-22T06:23:13;27.20;;;10.90;;
41233;SDS011;26968;42.686;23.352;2024-03-22T06:25:38;26.85;;;12.23;;
41233;SDS011;26968;42.686;23.352;2024-03-22T06:28:04;32.05;;;13.68;;
41233;SDS011;26968;42.686;23.352;2024-03-22T06:30:30;32.83;;;11.93;;
41233;SDS011;26968;42.686;23.352;2024-03-22T06:32:55;31.15;;;10.63;;
41233;SDS011;26968;42.686;23.352;2024-03-22T06:37:47;30.58;;;12.55;;
41233;SDS011;26968;42.686;23.352;2024-03-22T06:40:13;28.50;;;11.20;;
41233;SDS011;26968;42.686;23.352;2024-03-22T06:42:39;26.67;;;11.48;;
41233;SDS011;26968;42.686;23.352;2024-03-22T06:45:05;26.55;;;12.18;;
41233;SDS011;26968;42.686;23.352;2024-03-22T06:47:31;36.17;;;12.38;;
41233;SDS011;26968;42.686;23.352;2024-03-22T06:49:57;27.10;;;13.52;;
41233;SDS011;26968;42.686;23.352;2024-03-22T06:54:48;34.30;;;12.27;;
41233;SDS011;26968;42.686;23.352;2024-03-22T06:57:14;23.98;;;10.20;;
41233;SDS011;26968;42.686;23.352;2024-03-22T07:02:04;35.72;;;12.95;;
41233;SDS011;26968;42.686;23.352;2024-03-22T07:04:30;23.13;;;11.10;;
41233;SDS011;26968;42.686;23.352;2024-03-22T07:09:21;22.83;;;9.45;;
41233;SDS011;26968;42.686;23.352;2024-03-22T07:14:12;22.25;;;8.93;;
41233;SDS011;26968;42.686;23.352;2024-03-22T07:16:39;27.10;;;10.60;;
41233;SDS011;26968;42.686;23.352;2024-03-22T07:19:05;21.15;;;8.88;;
41233;SDS011;26968;42.686;23.352;2024-03-22T07:21:31;19.35;;;8.30;;
41233;SDS011;26968;42.686;23.352;2024-03-22T07:26:23;22.42;;;8.45;;
41233;SDS011;26968;42.686;23.352;2024-03-22T07:28:52;31.95;;;10.80;;
41233;SDS011;26968;42.686;23.352;2024-03-22T07:31:18;17.20;;;7.97;;
41233;SDS011;26968;42.686;23.352;2024-03-22T07:33:45;22.20;;;8.35;;
41233;SDS011;26968;42.686;23.352;2024-03-22T07:38:38;14.25;;;6.82;;
41233;SDS011;26968;42.686;23.352;2024-03-22T07:43:29;8.90;;;4.65;;
41233;SDS011;26968;42.686;23.352;2024-03-22T07:48:20;8.93;;;4.78;;
41233;SDS011;26968;42.686;23.352;2024-03-22T07:53:11;9.90;;;4.97;;
41233;SDS011;26968;42.686;23.352;2024-03-22T07:55:39;7.85;;;3.80;;
41233;SDS011;26968;42.686;23.352;2024-03-22T07:58:05;6.20;;;3.70;;
41233;SDS011;26968;42.686;23.352;2024-03-22T08:02:56;7.47;;;3.38;;
41233;SDS011;26968;42.686;23.352;2024-03-22T08:07:48;10.50;;;3.92;;
41233;SDS011;26968;42.686;23.352;2024-03-22T08:10:16;8.93;;;4.55;;
41233;SDS011;26968;42.686;23.352;2024-03-22T08:15:07;6.25;;;3.28;;
41233;SDS011;26968;42.686;23.352;2024-03-22T08:19:58;6.97;;;3.85;;
41233;SDS011;26968;42.686;23.352;2024-03-22T08:24:49;8.07;;;3.42;;
41233;SDS011;26968;42.686;23.352;2024-03-22T08:27:15;6.57;;;3.60;;
41233;SDS011;26968;42.686;23.352;2024-03-22T08:32:07;7.50;;;3.47;;
41233;SDS011;26968;42.686;23.352;2024-03-22T08:34:32;6.60;;;3.28;;
41233;SDS011;26968;42.686;23.352;2024-03-22T08:36:59;7.13;;;3.25;;
41233;SDS011;26968;42.686;23.352;2024-03-22T08:39:25;7.43;;;3.20;;
41233;SDS011;26968;42.686;23.352;2024-03-22T08:41:53;6.13;;;3.05;;
41233;SDS011;26968;42.686;23.352;2024-03-22T08:44:20;7.15;;;3.97;;
41233;SDS011;26968;42.686;23.352;2024-03-22T08:46:45;5.93;;;2.95;;
41233;SDS011;26968;42.686;23.352;2024-03-22T08:49:13;7.32;;;3.72;;
41233;SDS011;26968;42.686;23.352;2024-03-22T08:51:39;5.97;;;3.67;;
41233;SDS011;26968;42.686;23.352;2024-03-22T08:54:04;7.40;;;3.80;;
41233;SDS011;26968;42.686;23.352;2024-03-22T08:56:30;4.80;;;3.22;;
41233;SDS011;26968;42.686;23.352;2024-03-22T08:58:56;7.00;;;3.30;;
41233;SDS011;26968;42.686;23.352;2024-03-22T09:01:21;7.13;;;3.30;;
41233;SDS011;26968;42.686;23.352;2024-03-22T09:03:47;10.05;;;3.63;;
41233;SDS011;26968;42.686;23.352;2024-03-22T09:06:14;8.63;;;3.42;;
41233;SDS011;26968;42.686;23.352;2024-03-22T09:08:40;10.32;;;4.10;;
41233;SDS011;26968;42.686;23.352;2024-03-22T09:11:05;7.47;;;3.40;;
41233;SDS011;26968;42.686;23.352;2024-03-22T09:13:31;5.43;;;2.63;;
41233;SDS011;26968;42.686;23.352;2024-03-22T09:15:59;8.57;;;3.45;;
41233;SDS011;26968;42.686;23.352;2024-03-22T09:18:25;5.85;;;3.13;;
41233;SDS011;26968;42.686;23.352;2024-03-22T09:20:54;7.80;;;3.45;;
41233;SDS011;26968;42.686;23.352;2024-03-22T09:23:22;9.77;;;4.07;;
41233;SDS011;26968;42.686;23.352;2024-03-22T09:25:49;4.45;;;2.92;;
41233;SDS011;26968;42.686;23.352;2024-03-22T09:28:15;5.10;;;3.10;;
41233;SDS011;26968;42.686;23.352;2024-03-22T09:30:43;5.72;;;3.20;;
41233;SDS011;26968;42.686;23.352;2024-03-22T09:33:11;6.70;;;3.72;;
41233;SDS011;26968;42.686;23.352;2024-03-22T09:35:39;5.60;;;3.38;;
41233;SDS011;26968;42.686;23.352;2024-03-22T09:38:05;6.20;;;3.50;;
41233;SDS011;26968;42.686;23.352;2024-03-22T09:40:34;7.80;;;3.85;;
41233;SDS011;26968;42.686;23.352;2024-03-22T09:43:09;5.80;;;3.20;;
41233;SDS011;26968;42.686;23.352;2024-03-22T09:45:42;6.00;;;3.13;;
41233;SDS011;26968;42.686;23.352;2024-03-22T09:48:10;6.43;;;2.78;;
41233;SDS011;26968;42.686;23.352;2024-03-22T09:50:39;6.00;;;2.80;;
41233;SDS011;26968;42.686;23.352;2024-03-22T09:53:07;3.72;;;2.72;;
41233;SDS011;26968;42.686;23.352;2024-03-22T09:55:35;8.23;;;3.03;;
41233;SDS011;26968;42.686;23.352;2024-03-22T09:58:02;7.72;;;3.30;;
41233;SDS011;26968;42.686;23.352;2024-03-22T10:00:29;5.28;;;3.35;;
41233;SDS011;26968;42.686;23.352;2024-03-22T10:02:56;7.68;;;3.60;;
41233;SDS011;26968;42.686;23.352;2024-03-22T10:05:22;7.75;;;2.78;;
41233;SDS011;26968;42.686;23.352;2024-03-22T10:07:47;7.00;;;3.10;;
41233;SDS011;26968;42.686;23.352;2024-03-22T10:10:14;6.78;;;3.13;;
41233;SDS011;26968;42.686;23.352;2024-03-22T10:12:40;4.25;;;2.20;;
41233;SDS011;26968;42.686;23.352;2024-03-22T10:15:07;4.90;;;2.60;;
41233;SDS011;26968;42.686;23.352;2024-03-22T10:17:34;5.38;;;2.90;;
41233;SDS011;26968;42.686;23.352;2024-03-22T10:19:59;5.22;;;2.75;;
41233;SDS011;26968;42.686;23.352;2024-03-22T10:22:25;6.35;;;2.85;;
41233;SDS011;26968;42.686;23.352;2024-03-22T10:24:51;5.38;;;3.22;;
41233;SDS011;26968;42.686;23.352;2024-03-22T10:27:17;9.07;;;3.00;;
41233;SDS011;26968;42.686;23.352;2024-03-22T10:29:45;4.82;;;2.78;;
41233;SDS011;26968;42.686;23.352;2024-03-22T10:32:12;5.50;;;2.63;;
41233;SDS011;26968;42.686;23.352;2024-03-22T10:34:37;7.50;;;3.72;;
41233;SDS011;26968;42.686;23.352;2024-03-22T10:37:07;3.83;;;2.67;;
41233;SDS011;26968;42.686;23.352;2024-03-22T10:39:36;6.18;;;2.85;;
41233;SDS011;26968;42.686;23.352;2024-03-22T10:42:04;5.28;;;2.38;;
41233;SDS011;26968;42.686;23.352;2024-03-22T10:44:32;5.07;;;2.70;;
41233;SDS011;26968;42.686;23.352;2024-03-22T10:46:58;8.00;;;3.63;;
41233;SDS011;26968;42.686;23.352;2024-03-22T10:49:29;6.53;;;3.53;;
41233;SDS011;26968;42.686;23.352;2024-03-22T10:52:01;6.38;;;2.75;;
41233;SDS011;26968;42.686;23.352;2024-03-22T10:54:33;3.80;;;2.50;;
41233;SDS011;26968;42.686;23.352;2024-03-22T10:57:01;5.13;;;3.03;;
41233;SDS011;26968;42.686;23.352;2024-03-22T10:59:32;8.02;;;3.50;;
41233;SDS011;26968;42.686;23.352;2024-03-22T11:02:03;5.47;;;3.08;;
41233;SDS011;26968;42.686;23.352;2024-03-22T11:04:32;7.13;;;3.30;;
41233;SDS011;26968;42.686;23.352;2024-03-22T11:06:57;9.00;;;3.50;;
41233;SDS011;26968;42.686;23.352;2024-03-22T11:09:27;7.72;;;3.20;;
41233;SDS011;26968;42.686;23.352;2024-03-22T11:11:53;4.88;;;2.95;;
41233;SDS011;26968;42.686;23.352;2024-03-22T11:14:20;6.18;;;3.20;;
41233;SDS011;26968;42.686;23.352;2024-03-22T11:16:48;8.82;;;3.22;;
41233;SDS011;26968;42.686;23.352;2024-03-22T11:19:13;4.68;;;2.72;;
41233;SDS011;26968;42.686;23.352;2024-03-22T11:21:39;8.85;;;2.72;;
41233;SDS011;26968;42.686;23.352;2024-03-22T11:24:06;7.82;;;2.50;;
41233;SDS011;26968;42.686;23.352;2024-03-22T11:26:32;4.88;;;3.00;;
41233;SDS011;26968;42.686;23.352;2024-03-22T11:29:01;4.65;;;2.60;;
41233;SDS011;26968;42.686;23.352;2024-03-22T11:31:29;9.15;;;2.80;;
41233;SDS011;26968;42.686;23.352;2024-03-22T11:33:55;3.65;;;2.42;;
41233;SDS011;26968;42.686;23.352;2024-03-22T11:36:22;4.60;;;2.28;;
41233;SDS011;26968;42.686;23.352;2024-03-22T11:38:48;7.55;;;2.50;;
41233;SDS011;26968;42.686;23.352;2024-03-22T11:41:33;5.78;;;2.47;;
41233;SDS011;26968;42.686;23.352;2024-03-22T11:43:59;5.63;;;2.80;;
41233;SDS011;26968;42.686;23.352;2024-03-22T11:46:26;7.30;;;2.80;;
41233;SDS011;26968;42.686;23.352;2024-03-22T11:48:53;4.25;;;2.58;;
41233;SDS011;26968;42.686;23.352;2024-03-22T11:51:19;5.72;;;2.40;;
41233;SDS011;26968;42.686;23.352;2024-03-22T11:53:52;4.25;;;2.30;;
41233;SDS011;26968;42.686;23.352;2024-03-22T11:56:21;3.95;;;2.65;;
41233;SDS011;26968;42.686;23.352;2024-03-22T11:58:47;4.35;;;2.60;;
41233;SDS011;26968;42.686;23.352;2024-03-22T12:01:14;7.10;;;3.47;;
41233;SDS011;26968;42.686;23.352;2024-03-22T12:03:43;7.47;;;2.75;;
41233;SDS011;26968;42.686;23.352;2024-03-22T12:06:09;5.97;;;2.90;;
41233;SDS011;26968;42.686;23.352;2024-03-22T12:08:36;4.53;;;3.08;;
41233;SDS011;26968;42.686;23.352;2024-03-22T12:11:06;4.10;;;3.08;;
41233;SDS011;26968;42.686;23.352;2024-03-22T12:13:39;4.85;;;3.05;;
41233;SDS011;26968;42.686;23.352;2024-03-22T12:18:30;5.45;;;3.42;;
41233;SDS011;26968;42.686;23.352;2024-03-22T12:20:57;5.18;;;3.10;;
41233;SDS011;26968;42.686;23.352;2024-03-22T12:23:23;7.68;;;2.78;;
41233;SDS011;26968;42.686;23.352;2024-03-22T12:25:49;5.22;;;2.95;;
41233;SDS011;26968;42.686;23.352;2024-03-22T12:28:16;10.00;;;2.85;;
41233;SDS011;26968;42.686;23.352;2024-03-22T12:30:42;6.50;;;3.17;;
41233;SDS011;26968;42.686;23.352;2024-03-22T12:33:08;6.28;;;2.92;;
41233;SDS011;26968;42.686;23.352;2024-03-22T12:35:40;7.47;;;3.00;;
41233;SDS011;26968;42.686;23.352;2024-03-22T12:38:06;5.32;;;2.80;;
41233;SDS011;26968;42.686;23.352;2024-03-22T12:40:33;6.50;;;2.80;;
41233;SDS011;26968;42.686;23.352;2024-03-22T12:43:00;5.13;;;2.55;;
41233;SDS011;26968;42.686;23.352;2024-03-22T12:45:26;5.05;;;2.53;;
41233;SDS011;26968;42.686;23.352;2024-03-22T12:47:51;6.68;;;2.97;;
41233;SDS011;26968;42.686;23.352;2024-03-22T12:50:18;6.13;;;2.92;;
41233;SDS011;26968;42.686;23.352;2024-03-22T12:52:44;5.72;;;2.60;;
41233;SDS011;26968;42.686;23.352;2024-03-22T12:55:10;36.05;;;4.72;;
41233;SDS011;26968;42.686;23.352;2024-03-22T12:57:36;4.93;;;2.85;;
41233;SDS011;26968;42.686;23.352;2024-03-22T13:00:02;3.70;;;2.40;;
41233;SDS011;26968;42.686;23.352;2024-03-22T13:02:31;4.45;;;3.35;;
41233;SDS011;26968;42.686;23.352;2024-03-22T13:05:04;5.95;;;2.85;;
41233;SDS011;26968;42.686;23.352;2024-03-22T13:07:30;4.30;;;2.58;;
41233;SDS011;26968;42.686;23.352;2024-03-22T13:09:56;10.10;;;2.92;;
41233;SDS011;26968;42.686;23.352;2024-03-22T13:12:21;99.47;;;10.15;;
41233;SDS011;26968;42.686;23.352;2024-03-22T13:14:47;17.48;;;3.58;;
41233;SDS011;26968;42.686;23.352;2024-03-22T13:17:12;8.82;;;3.20;;
41233;SDS011;26968;42.686;23.352;2024-03-22T13:19:38;4.90;;;2.83;;
41233;SDS011;26968;42.686;23.352;2024-03-22T13:22:04;3.72;;;2.30;;
41233;SDS011;26968;42.686;23.352;2024-03-22T13:24:29;4.22;;;2.92;;
41233;SDS011;26968;42.686;23.352;2024-03-22T13:26:55;4.35;;;2.22;;
41233;SDS011;26968;42.686;23.352;2024-03-22T13:29:21;5.90;;;2.33;;
41233;SDS011;26968;42.686;23.352;2024-03-22T13:31:46;9.57;;;3.63;;
41233;SDS011;26968;42.686;23.352;2024-03-22T13:34:12;3.75;;;2.05;;
41233;SDS011;26968;42.686;23.352;2024-03-22T13:36:39;5.45;;;2.90;;
41233;SDS011;26968;42.686;23.352;2024-03-22T13:39:04;4.75;;;2.92;;
41233;SDS011;26968;42.686;23.352;2024-03-22T13:41:30;7.82;;;2.70;;
41233;SDS011;26968;42.686;23.352;2024-03-22T13:43:56;5.20;;;2.95;;
41233;SDS011;26968;42.686;23.352;2024-03-22T13:46:21;5.72;;;2.63;;
41233;SDS011;26968;42.686;23.352;2024-03-22T13:48:47;5.75;;;3.08;;
41233;SDS011;26968;42.686;23.352;2024-03-22T13:51:14;9.38;;;4.22;;
41233;SDS011;26968;42.686;23.352;2024-03-22T13:53:40;4.65;;;3.00;;
41233;SDS011;26968;42.686;23.352;2024-03-22T13:56:05;6.25;;;3.08;;
41233;SDS011;26968;42.686;23.352;2024-03-22T13:58:31;8.93;;;3.38;;
41233;SDS011;26968;42.686;23.352;2024-03-22T14:00:59;4.95;;;2.80;;
41233;SDS011;26968;42.686;23.352;2024-03-22T14:03:25;8.68;;;2.95;;
41233;SDS011;26968;42.686;23.352;2024-03-22T14:05:52;4.97;;;2.90;;
41233;SDS011;26968;42.686;23.352;2024-03-22T14:08:17;7.85;;;3.45;;
41233;SDS011;26968;42.686;23.352;2024-03-22T14:10:43;5.13;;;2.80;;
41233;SDS011;26968;42.686;23.352;2024-03-22T14:13:08;8.20;;;2.67;;
41233;SDS011;26968;42.686;23.352;2024-03-22T14:15:34;9.88;;;2.83;;
41233;SDS011;26968;42.686;23.352;2024-03-22T14:18:01;6.05;;;2.30;;
41233;SDS011;26968;42.686;23.352;2024-03-22T14:20:26;5.90;;;2.42;;
41233;SDS011;26968;42.686;23.352;2024-03-22T14:22:52;5.35;;;2.90;;
41233;SDS011;26968;42.686;23.352;2024-03-22T14:25:18;7.15;;;3.00;;
41233;SDS011;26968;42.686;23.352;2024-03-22T14:27:44;4.63;;;2.80;;
41233;SDS011;26968;42.686;23.352;2024-03-22T14:30:11;6.75;;;3.65;;
41233;SDS011;26968;42.686;23.352;2024-03-22T14:32:38;10.68;;;3.40;;
41233;SDS011;26968;42.686;23.352;2024-03-22T14:35:05;5.38;;;2.85;;
41233;SDS011;26968;42.686;23.352;2024-03-22T14:37:33;5.03;;;3.25;;
41233;SDS011;26968;42.686;23.352;2024-03-22T14:39:59;7.75;;;3.25;;
41233;SDS011;26968;42.686;23.352;2024-03-22T14:42:27;4.72;;;2.70;;
41233;SDS011;26968;42.686;23.352;2024-03-22T14:44:53;6.22;;;3.20;;
41233;SDS011;26968;42.686;23.352;2024-03-22T14:47:20;3.72;;;2.85;;
41233;SDS011;26968;42.686;23.352;2024-03-22T14:49:50;10.80;;;2.97;;
41233;SDS011;26968;42.686;23.352;2024-03-22T14:52:16;5.53;;;3.05;;
41233;SDS011;26968;42.686;23.352;2024-03-22T14:54:42;8.60;;;3.75;;
41233;SDS011;26968;42.686;23.352;2024-03-22T14:57:08;10.80;;;3.58;;
41233;SDS011;26968;42.686;23.352;2024-03-22T14:59:35;6.65;;;3.70;;
41233;SDS011;26968;42.686;23.352;2024-03-22T15:02:01;9.13;;;3.50;;
41233;SDS011;26968;42.686;23.352;2024-03-22T15:04:26;9.25;;;3.70;;
41233;SDS011;26968;42.686;23.352;2024-03-22T15:06:53;5.05;;;2.75;;
41233;SDS011;26968;42.686;23.352;2024-03-22T15:09:18;6.07;;;3.05;;
41233;SDS011;26968;42.686;23.352;2024-03-22T15:11:45;5.47;;;2.90;;
41233;SDS011;26968;42.686;23.352;2024-03-22T15:14:13;5.80;;;2.97;;
41233;SDS011;26968;42.686;23.352;2024-03-22T15:16:39;3.75;;;2.97;;
41233;SDS011;26968;42.686;23.352;2024-03-22T15:19:07;4.13;;;2.72;;
41233;SDS011;26968;42.686;23.352;2024-03-22T15:21:35;7.72;;;3.22;;
41233;SDS011;26968;42.686;23.352;2024-03-22T15:24:01;6.00;;;3.10;;
41233;SDS011;26968;42.686;23.352;2024-03-22T15:26:26;7.63;;;3.17;;
41233;SDS011;26968;42.686;23.352;2024-03-22T15:28:52;8.90;;;3.33;;
41233;SDS011;26968;42.686;23.352;2024-03-22T15:31:18;8.38;;;3.60;;
41233;SDS011;26968;42.686;23.352;2024-03-22T15:33:43;5.07;;;3.20;;
41233;SDS011;26968;42.686;23.352;2024-03-22T15:36:09;4.50;;;2.70;;
41233;SDS011;26968;42.686;23.352;2024-03-22T15:38:37;6.53;;;2.90;;
41233;SDS011;26968;42.686;23.352;2024-03-22T15:41:02;5.60;;;2.97;;
41233;SDS011;26968;42.686;23.352;2024-03-22T15:43:28;4.72;;;2.90;;
41233;SDS011;26968;42.686;23.352;2024-03-22T15:45:54;6.97;;;2.80;;
41233;SDS011;26968;42.686;23.352;2024-03-22T15:48:20;5.85;;;2.88;;